sensor_id;sensor_type;location;lat;lon;timestamp;temperature;humidity
40538;DHT22;27925;41.874;12.526;2022-07-29T00:00:12;28.20;72.50
40538;DHT22;27925;41.874;12.526;2022-07-29T00:02:38;28.20;72.30
40538;DHT22;27925;41.874;12.526;2022-07-29T00:05:07;28.20;72.30
40538;DHT22;27925;41.874;12.526;2022-07-29T00:07:33;28.20;72.40
40538;DHT22;27925;41.874;12.526;2022-07-29T00:09:58;28.20;71.10
40538;DHT22;27925;41.874;12.526;2022-07-29T00:12:25;28.20;72.30
40538;DHT22;27925;41.874;12.526;2022-07-29T00:14:51;28.10;72.20
40538;DHT22;27925;41.874;12.526;2022-07-29T00:17:17;28.20;72.70
40538;DHT22;27925;41.874;12.526;2022-07-29T00:19:43;28.20;72.90
40538;DHT22;27925;41.874;12.526;2022-07-29T00:22:09;28.10;73.30
40538;DHT22;27925;41.874;12.526;2022-07-29T00:24:35;28.10;73.60
40538;DHT22;27925;41.874;12.526;2022-07-29T00:27:01;28.10;71.80
40538;DHT22;27925;41.874;12.526;2022-07-29T00:29:27;28.10;72.40
40538;DHT22;27925;41.874;12.526;2022-07-29T00:31:52;28.10;73.10
40538;DHT22;27925;41.874;12.526;2022-07-29T00:34:18;28.00;71.70
40538;DHT22;27925;41.874;12.526;2022-07-29T00:37:03;28.10;72.00
40538;DHT22;27925;41.874;12.526;2022-07-29T00:39:29;28.00;73.30
40538;DHT22;27925;41.874;12.526;2022-07-29T00:41:55;28.00;73.80
40538;DHT22;27925;41.874;12.526;2022-07-29T00:44:22;28.00;72.80
40538;DHT22;27925;41.874;12.526;2022-07-29T00:46:54;28.00;72.60
40538;DHT22;27925;41.874;12.526;2022-07-29T00:49:19;28.00;72.00
40538;DHT22;27925;41.874;12.526;2022-07-29T00:51:47;28.00;71.50
40538;DHT22;27925;41.874;12.526;2022-07-29T00:54:14;28.00;71.70
40538;DHT22;27925;41.874;12.526;2022-07-29T00:56:41;28.00;73.10
40538;DHT22;27925;41.874;12.526;2022-07-29T00:59:07;28.00;73.20
40538;DHT22;27925;41.874;12.526;2022-07-29T01:01:34;28.00;73.20
40538;DHT22;27925;41.874;12.526;2022-07-29T01:04:00;28.00;72.70
40538;DHT22;27925;41.874;12.526;2022-07-29T01:06:26;27.90;72.80
40538;DHT22;27925;41.874;12.526;2022-07-29T01:08:52;27.80;73.30
40538;DHT22;27925;41.874;12.526;2022-07-29T01:11:18;27.80;73.40
40538;DHT22;27925;41.874;12.526;2022-07-29T01:13:49;27.70;72.90
40538;DHT22;27925;41.874;12.526;2022-07-29T01:16:30;27.70;72.70
40538;DHT22;27925;41.874;12.526;2022-07-29T01:19:01;27.60;72.30
40538;DHT22;27925;41.874;12.526;2022-07-29T01:21:51;27.60;72.70
40538;DHT22;27925;41.874;12.526;2022-07-29T01:24:39;27.70;72.10
40538;DHT22;27925;41.874;12.526;2022-07-29T01:30:05;27.60;71.90
40538;DHT22;27925;41.874;12.526;2022-07-29T01:32:35;27.60;72.20
40538;DHT22;27925;41.874;12.526;2022-07-29T01:35:17;27.60;71.70
40538;DHT22;27925;41.874;12.526;2022-07-29T01:37:48;27.50;71.50
40538;DHT22;27925;41.874;12.526;2022-07-29T01:40:48;27.50;72.40
40538;DHT22;27925;41.874;12.526;2022-07-29T01:43:18;27.50;71.40
40538;DHT22;27925;41.874;12.526;2022-07-29T01:46:01;27.50;71.80
40538;DHT22;27925;41.874;12.526;2022-07-29T01:48:57;27.40;71.40
40538;DHT22;27925;41.874;12.526;2022-07-29T01:51:42;27.40;71.30
40538;DHT22;27925;41.874;12.526;2022-07-29T01:54:14;27.40;71.20
40538;DHT22;27925;41.874;12.526;2022-07-29T01:56:43;27.50;71.30
40538;DHT22;27925;41.874;12.526;2022-07-29T01:59:13;27.50;71.50
40538;DHT22;27925;41.874;12.526;2022-07-29T02:01:40;27.40;70.70
40538;DHT22;27925;41.874;12.526;2022-07-29T02:04:11;27.40;70.90
40538;DHT22;27925;41.874;12.526;2022-07-29T02:06:38;27.40;71.20
40538;DHT22;27925;41.874;12.526;2022-07-29T02:09:10;27.40;71.10
40538;DHT22;27925;41.874;12.526;2022-07-29T02:11:38;27.40;71.00
40538;DHT22;27925;41.874;12.526;2022-07-29T02:14:06;27.40;70.30
40538;DHT22;27925;41.874;12.526;2022-07-29T02:16:33;27.30;70.30
40538;DHT22;27925;41.874;12.526;2022-07-29T02:19:01;27.30;70.40
40538;DHT22;27925;41.874;12.526;2022-07-29T02:21:28;27.30;70.50
40538;DHT22;27925;41.874;12.526;2022-07-29T02:23:56;27.40;70.60
40538;DHT22;27925;41.874;12.526;2022-07-29T02:26:26;27.50;70.40
40538;DHT22;27925;41.874;12.526;2022-07-29T02:28:56;27.40;70.30
40538;DHT22;27925;41.874;12.526;2022-07-29T02:31:29;27.40;70.10
40538;DHT22;27925;41.874;12.526;2022-07-29T02:33:58;27.40;70.10
40538;DHT22;27925;41.874;12.526;2022-07-29T02:36:25;27.40;69.80
40538;DHT22;27925;41.874;12.526;2022-07-29T02:38:53;27.40;69.60
40538;DHT22;27925;41.874;12.526;2022-07-29T02:41:35;27.40;69.80
40538;DHT22;27925;41.874;12.526;2022-07-29T02:44:06;27.40;69.40
40538;DHT22;27925;41.874;12.526;2022-07-29T02:49:38;27.30;69.70
40538;DHT22;27925;41.874;12.526;2022-07-29T02:52:47;27.30;69.60
40538;DHT22;27925;41.874;12.526;2022-07-29T02:55:33;27.30;70.30
40538;DHT22;27925;41.874;12.526;2022-07-29T02:58:30;27.30;69.60
40538;DHT22;27925;41.874;12.526;2022-07-29T03:01:01;27.30;69.70
40538;DHT22;27925;41.874;12.526;2022-07-29T03:03:36;27.30;69.80
40538;DHT22;27925;41.874;12.526;2022-07-29T03:06:03;27.30;69.70
40538;DHT22;27925;41.874;12.526;2022-07-29T03:08:32;27.30;69.80
40538;DHT22;27925;41.874;12.526;2022-07-29T03:11:01;27.30;69.90
40538;DHT22;27925;41.874;12.526;2022-07-29T03:13:27;27.30;69.80
40538;DHT22;27925;41.874;12.526;2022-07-29T03:15:55;27.30;70.00
40538;DHT22;27925;41.874;12.526;2022-07-29T03:18:24;27.30;70.10
40538;DHT22;27925;41.874;12.526;2022-07-29T03:20:50;27.30;70.40
40538;DHT22;27925;41.874;12.526;2022-07-29T03:23:20;27.30;70.40
40538;DHT22;27925;41.874;12.526;2022-07-29T03:25:49;27.20;70.60
40538;DHT22;27925;41.874;12.526;2022-07-29T03:28:15;27.30;70.60
40538;DHT22;27925;41.874;12.526;2022-07-29T03:30:43;27.30;69.90
40538;DHT22;27925;41.874;12.526;2022-07-29T03:33:09;27.30;70.00
40538;DHT22;27925;41.874;12.526;2022-07-29T03:35:35;27.30;70.00
40538;DHT22;27925;41.874;12.526;2022-07-29T03:38:02;27.20;69.80
40538;DHT22;27925;41.874;12.526;2022-07-29T03:40:53;27.20;70.10
40538;DHT22;27925;41.874;12.526;2022-07-29T03:43:20;27.10;69.70
40538;DHT22;27925;41.874;12.526;2022-07-29T03:45:51;27.10;70.10
40538;DHT22;27925;41.874;12.526;2022-07-29T03:48:20;27.00;70.10
40538;DHT22;27925;41.874;12.526;2022-07-29T03:50:46;27.00;70.50
40538;DHT22;27925;41.874;12.526;2022-07-29T03:53:12;26.90;70.40
40538;DHT22;27925;41.874;12.526;2022-07-29T03:55:45;26.80;70.40
40538;DHT22;27925;41.874;12.526;2022-07-29T03:58:14;26.80;70.70
40538;DHT22;27925;41.874;12.526;2022-07-29T04:00:42;26.80;70.50
40538;DHT22;27925;41.874;12.526;2022-07-29T04:03:08;26.90;70.50
40538;DHT22;27925;41.874;12.526;2022-07-29T04:05:34;26.80;70.10
40538;DHT22;27925;41.874;12.526;2022-07-29T04:08:00;26.80;70.10
40538;DHT22;27925;41.874;12.526;2022-07-29T04:10:26;26.80;70.10
40538;DHT22;27925;41.874;12.526;2022-07-29T04:12:52;26.80;70.00
40538;DHT22;27925;41.874;12.526;2022-07-29T04:15:18;26.80;70.10
40538;DHT22;27925;41.874;12.526;2022-07-29T04:17:44;26.70;70.10
40538;DHT22;27925;41.874;12.526;2022-07-29T04:20:10;26.70;70.30
40538;DHT22;27925;41.874;12.526;2022-07-29T04:22:39;26.70;70.50
40538;DHT22;27925;41.874;12.526;2022-07-29T04:25:06;26.70;70.70
40538;DHT22;27925;41.874;12.526;2022-07-29T04:27:35;26.70;70.90
40538;DHT22;27925;41.874;12.526;2022-07-29T04:30:01;26.70;70.80
40538;DHT22;27925;41.874;12.526;2022-07-29T04:32:27;26.80;70.90
40538;DHT22;27925;41.874;12.526;2022-07-29T04:34:53;26.80;70.60
40538;DHT22;27925;41.874;12.526;2022-07-29T04:37:19;26.90;70.70
40538;DHT22;27925;41.874;12.526;2022-07-29T04:39:44;26.90;70.60
40538;DHT22;27925;41.874;12.526;2022-07-29T04:42:10;26.80;70.60
40538;DHT22;27925;41.874;12.526;2022-07-29T04:44:37;26.80;70.50
40538;DHT22;27925;41.874;12.526;2022-07-29T04:47:03;26.80;70.80
40538;DHT22;27925;41.874;12.526;2022-07-29T04:49:30;26.80;70.80
40538;DHT22;27925;41.874;12.526;2022-07-29T04:51:56;26.70;70.90
40538;DHT22;27925;41.874;12.526;2022-07-29T04:54:22;26.70;71.20
40538;DHT22;27925;41.874;12.526;2022-07-29T04:56:48;26.70;71.70
40538;DHT22;27925;41.874;12.526;2022-07-29T04:59:14;26.60;71.70
40538;DHT22;27925;41.874;12.526;2022-07-29T05:01:39;26.70;71.70
40538;DHT22;27925;41.874;12.526;2022-07-29T05:04:05;26.70;71.60
40538;DHT22;27925;41.874;12.526;2022-07-29T05:06:31;26.80;71.80
40538;DHT22;27925;41.874;12.526;2022-07-29T05:08:57;26.80;71.40
40538;DHT22;27925;41.874;12.526;2022-07-29T05:11:23;26.70;71.40
40538;DHT22;27925;41.874;12.526;2022-07-29T05:13:50;26.70;71.80
40538;DHT22;27925;41.874;12.526;2022-07-29T05:16:15;26.80;71.60
40538;DHT22;27925;41.874;12.526;2022-07-29T05:18:41;26.90;71.60
40538;DHT22;27925;41.874;12.526;2022-07-29T05:21:07;27.00;71.40
40538;DHT22;27925;41.874;12.526;2022-07-29T05:23:33;27.10;71.00
40538;DHT22;27925;41.874;12.526;2022-07-29T05:25:58;27.40;70.30
40538;DHT22;27925;41.874;12.526;2022-07-29T05:28:24;27.60;69.70
40538;DHT22;27925;41.874;12.526;2022-07-29T05:30:50;27.90;68.90
40538;DHT22;27925;41.874;12.526;2022-07-29T05:33:15;28.30;68.00
40538;DHT22;27925;41.874;12.526;2022-07-29T05:35:41;28.70;67.10
40538;DHT22;27925;41.874;12.526;2022-07-29T05:38:08;29.00;65.90
40538;DHT22;27925;41.874;12.526;2022-07-29T05:40:34;29.20;65.30
40538;DHT22;27925;41.874;12.526;2022-07-29T05:43:00;29.50;63.90
40538;DHT22;27925;41.874;12.526;2022-07-29T05:45:25;29.80;63.50
40538;DHT22;27925;41.874;12.526;2022-07-29T05:47:51;29.90;62.60
40538;DHT22;27925;41.874;12.526;2022-07-29T05:50:17;30.00;62.30
40538;DHT22;27925;41.874;12.526;2022-07-29T05:52:44;30.00;61.80
40538;DHT22;27925;41.874;12.526;2022-07-29T05:55:10;30.20;61.80
40538;DHT22;27925;41.874;12.526;2022-07-29T05:57:35;30.40;60.70
40538;DHT22;27925;41.874;12.526;2022-07-29T06:00:02;30.70;60.00
40538;DHT22;27925;41.874;12.526;2022-07-29T06:02:31;31.00;59.30
40538;DHT22;27925;41.874;12.526;2022-07-29T06:04:57;31.30;58.80
40538;DHT22;27925;41.874;12.526;2022-07-29T06:07:25;31.60;58.10
40538;DHT22;27925;41.874;12.526;2022-07-29T06:09:51;31.90;56.20
40538;DHT22;27925;41.874;12.526;2022-07-29T06:12:17;32.10;57.20
40538;DHT22;27925;41.874;12.526;2022-07-29T06:14:42;32.00;56.90
40538;DHT22;27925;41.874;12.526;2022-07-29T06:17:08;32.30;56.80
40538;DHT22;27925;41.874;12.526;2022-07-29T06:19:34;32.50;56.10
40538;DHT22;27925;41.874;12.526;2022-07-29T06:22:03;32.70;55.90
40538;DHT22;27925;41.874;12.526;2022-07-29T06:24:28;32.90;54.20
40538;DHT22;27925;41.874;12.526;2022-07-29T06:26:55;32.90;55.40
40538;DHT22;27925;41.874;12.526;2022-07-29T06:29:21;33.00;54.00
40538;DHT22;27925;41.874;12.526;2022-07-29T06:31:47;33.10;54.60
40538;DHT22;27925;41.874;12.526;2022-07-29T06:34:13;33.30;54.40
40538;DHT22;27925;41.874;12.526;2022-07-29T06:36:39;33.50;54.20
40538;DHT22;27925;41.874;12.526;2022-07-29T06:39:08;33.60;53.60
40538;DHT22;27925;41.874;12.526;2022-07-29T06:41:34;33.70;53.50
40538;DHT22;27925;41.874;12.526;2022-07-29T06:44:00;33.80;53.20
40538;DHT22;27925;41.874;12.526;2022-07-29T06:46:26;33.90;53.10
40538;DHT22;27925;41.874;12.526;2022-07-29T06:48:53;34.00;52.90
40538;DHT22;27925;41.874;12.526;2022-07-29T06:51:19;34.10;52.80
40538;DHT22;27925;41.874;12.526;2022-07-29T06:53:46;34.20;52.50
40538;DHT22;27925;41.874;12.526;2022-07-29T06:56:12;34.20;52.40
40538;DHT22;27925;41.874;12.526;2022-07-29T06:58:39;34.20;52.40
40538;DHT22;27925;41.874;12.526;2022-07-29T07:01:06;34.20;52.20
40538;DHT22;27925;41.874;12.526;2022-07-29T07:03:32;34.20;52.40
40538;DHT22;27925;41.874;12.526;2022-07-29T07:05:58;34.30;52.00
40538;DHT22;27925;41.874;12.526;2022-07-29T07:08:24;34.40;52.00
40538;DHT22;27925;41.874;12.526;2022-07-29T07:10:50;34.40;51.80
40538;DHT22;27925;41.874;12.526;2022-07-29T07:13:16;34.50;51.60
40538;DHT22;27925;41.874;12.526;2022-07-29T07:15:45;34.50;50.60
40538;DHT22;27925;41.874;12.526;2022-07-29T07:18:14;34.50;51.40
40538;DHT22;27925;41.874;12.526;2022-07-29T07:20:40;34.60;51.30
40538;DHT22;27925;41.874;12.526;2022-07-29T07:23:06;34.60;51.10
40538;DHT22;27925;41.874;12.526;2022-07-29T07:25:32;34.50;51.60
40538;DHT22;27925;41.874;12.526;2022-07-29T07:27:58;34.40;51.10
40538;DHT22;27925;41.874;12.526;2022-07-29T07:30:24;34.40;51.10
40538;DHT22;27925;41.874;12.526;2022-07-29T07:32:49;34.20;51.00
40538;DHT22;27925;41.874;12.526;2022-07-29T07:35:15;34.00;51.30
40538;DHT22;27925;41.874;12.526;2022-07-29T07:37:41;33.90;51.50
40538;DHT22;27925;41.874;12.526;2022-07-29T07:40:10;33.90;50.90
40538;DHT22;27925;41.874;12.526;2022-07-29T07:42:37;33.90;51.20
40538;DHT22;27925;41.874;12.526;2022-07-29T07:45:03;34.10;51.60
40538;DHT22;27925;41.874;12.526;2022-07-29T07:47:30;34.10;50.90
40538;DHT22;27925;41.874;12.526;2022-07-29T07:49:55;34.00;51.30
40538;DHT22;27925;41.874;12.526;2022-07-29T07:52:22;34.00;51.10
40538;DHT22;27925;41.874;12.526;2022-07-29T07:54:48;34.00;51.20
40538;DHT22;27925;41.874;12.526;2022-07-29T07:57:14;34.00;51.00
40538;DHT22;27925;41.874;12.526;2022-07-29T07:59:41;34.00;52.50
40538;DHT22;27925;41.874;12.526;2022-07-29T08:02:08;34.00;51.00
40538;DHT22;27925;41.874;12.526;2022-07-29T08:04:34;34.00;50.90
40538;DHT22;27925;41.874;12.526;2022-07-29T08:07:01;33.90;50.70
40538;DHT22;27925;41.874;12.526;2022-07-29T08:09:28;33.90;51.10
40538;DHT22;27925;41.874;12.526;2022-07-29T08:11:54;33.80;50.90
40538;DHT22;27925;41.874;12.526;2022-07-29T08:14:20;33.80;51.00
40538;DHT22;27925;41.874;12.526;2022-07-29T08:16:46;33.60;51.20
40538;DHT22;27925;41.874;12.526;2022-07-29T08:19:14;33.60;51.30
40538;DHT22;27925;41.874;12.526;2022-07-29T08:21:40;33.50;51.30
40538;DHT22;27925;41.874;12.526;2022-07-29T08:24:06;33.50;51.50
40538;DHT22;27925;41.874;12.526;2022-07-29T08:26:50;33.30;51.20
40538;DHT22;27925;41.874;12.526;2022-07-29T08:29:16;33.30;51.80
40538;DHT22;27925;41.874;12.526;2022-07-29T08:31:46;33.20;51.40
40538;DHT22;27925;41.874;12.526;2022-07-29T08:34:16;33.10;51.10
40538;DHT22;27925;41.874;12.526;2022-07-29T08:36:42;33.10;51.80
40538;DHT22;27925;41.874;12.526;2022-07-29T08:39:07;33.00;51.40
40538;DHT22;27925;41.874;12.526;2022-07-29T08:41:33;32.90;51.50
40538;DHT22;27925;41.874;12.526;2022-07-29T08:44:00;32.90;51.60
40538;DHT22;27925;41.874;12.526;2022-07-29T08:46:26;32.80;51.40
40538;DHT22;27925;41.874;12.526;2022-07-29T08:48:53;32.70;52.40
40538;DHT22;27925;41.874;12.526;2022-07-29T08:51:21;32.60;51.30
40538;DHT22;27925;41.874;12.526;2022-07-29T08:53:49;32.60;51.20
40538;DHT22;27925;41.874;12.526;2022-07-29T08:56:17;32.50;51.40
40538;DHT22;27925;41.874;12.526;2022-07-29T08:58:44;32.40;52.80
40538;DHT22;27925;41.874;12.526;2022-07-29T09:01:15;32.30;52.70
40538;DHT22;27925;41.874;12.526;2022-07-29T09:03:44;32.20;53.30
40538;DHT22;27925;41.874;12.526;2022-07-29T09:06:15;32.00;52.60
40538;DHT22;27925;41.874;12.526;2022-07-29T09:08:43;32.00;52.70
40538;DHT22;27925;41.874;12.526;2022-07-29T09:11:09;32.00;52.60
40538;DHT22;27925;41.874;12.526;2022-07-29T09:13:37;32.00;52.60
40538;DHT22;27925;41.874;12.526;2022-07-29T09:16:03;32.00;52.40
40538;DHT22;27925;41.874;12.526;2022-07-29T09:18:36;32.00;52.30
40538;DHT22;27925;41.874;12.526;2022-07-29T09:21:03;32.00;52.40
40538;DHT22;27925;41.874;12.526;2022-07-29T09:24:07;32.10;52.00
40538;DHT22;27925;41.874;12.526;2022-07-29T09:26:35;32.10;51.80
40538;DHT22;27925;41.874;12.526;2022-07-29T09:29:09;32.20;52.00
40538;DHT22;27925;41.874;12.526;2022-07-29T09:31:38;32.30;51.80
40538;DHT22;27925;41.874;12.526;2022-07-29T09:34:05;32.30;51.10
40538;DHT22;27925;41.874;12.526;2022-07-29T09:36:45;32.30;50.60
40538;DHT22;27925;41.874;12.526;2022-07-29T09:39:13;32.30;49.40
40538;DHT22;27925;41.874;12.526;2022-07-29T09:41:53;32.20;49.40
40538;DHT22;27925;41.874;12.526;2022-07-29T09:44:20;32.20;50.60
40538;DHT22;27925;41.874;12.526;2022-07-29T09:46:58;32.30;50.20
40538;DHT22;27925;41.874;12.526;2022-07-29T09:49:24;32.30;50.30
40538;DHT22;27925;41.874;12.526;2022-07-29T09:52:19;32.30;49.70
40538;DHT22;27925;41.874;12.526;2022-07-29T09:54:45;32.30;49.50
40538;DHT22;27925;41.874;12.526;2022-07-29T09:57:26;32.40;49.10
40538;DHT22;27925;41.874;12.526;2022-07-29T10:00:07;32.40;48.30
40538;DHT22;27925;41.874;12.526;2022-07-29T10:02:37;32.40;48.30
40538;DHT22;27925;41.874;12.526;2022-07-29T10:05:05;32.40;48.40
40538;DHT22;27925;41.874;12.526;2022-07-29T10:07:48;32.40;49.20
40538;DHT22;27925;41.874;12.526;2022-07-29T10:10:29;32.30;49.10
40538;DHT22;27925;41.874;12.526;2022-07-29T10:12:57;32.30;49.10
40538;DHT22;27925;41.874;12.526;2022-07-29T10:15:24;32.30;49.20
40538;DHT22;27925;41.874;12.526;2022-07-29T10:17:52;32.30;49.10
40538;DHT22;27925;41.874;12.526;2022-07-29T10:20:20;32.30;48.90
40538;DHT22;27925;41.874;12.526;2022-07-29T10:22:47;32.40;49.00
40538;DHT22;27925;41.874;12.526;2022-07-29T10:25:14;32.40;49.40
40538;DHT22;27925;41.874;12.526;2022-07-29T10:27:41;32.50;49.00
40538;DHT22;27925;41.874;12.526;2022-07-29T10:30:09;32.50;49.20
40538;DHT22;27925;41.874;12.526;2022-07-29T10:43:43;32.90;47.60
40538;DHT22;27925;41.874;12.526;2022-07-29T10:46:10;32.90;48.10
40538;DHT22;27925;41.874;12.526;2022-07-29T10:52:06;32.90;47.40
40538;DHT22;27925;41.874;12.526;2022-07-29T10:54:39;33.10;47.50
40538;DHT22;27925;41.874;12.526;2022-07-29T10:57:28;33.10;47.10
40538;DHT22;27925;41.874;12.526;2022-07-29T11:07:27;33.30;47.50
40538;DHT22;27925;41.874;12.526;2022-07-29T11:15:07;33.40;46.40
40538;DHT22;27925;41.874;12.526;2022-07-29T11:20:42;33.50;46.00
40538;DHT22;27925;41.874;12.526;2022-07-29T11:23:30;33.70;46.10
40538;DHT22;27925;41.874;12.526;2022-07-29T11:28:54;33.80;46.70
40538;DHT22;27925;41.874;12.526;2022-07-29T11:31:43;33.90;46.90
40538;DHT22;27925;41.874;12.526;2022-07-29T11:45:00;34.10;51.90
40538;DHT22;27925;41.874;12.526;2022-07-29T11:47:27;34.10;50.60
40538;DHT22;27925;41.874;12.526;2022-07-29T11:49:54;34.20;51.60
40538;DHT22;27925;41.874;12.526;2022-07-29T11:52:20;34.30;52.80
40538;DHT22;27925;41.874;12.526;2022-07-29T11:54:50;34.20;51.70
40538;DHT22;27925;41.874;12.526;2022-07-29T11:57:17;34.20;51.80
40538;DHT22;27925;41.874;12.526;2022-07-29T11:59:45;34.20;52.20
40538;DHT22;27925;41.874;12.526;2022-07-29T12:02:13;34.30;53.90
40538;DHT22;27925;41.874;12.526;2022-07-29T12:07:15;34.20;53.50
40538;DHT22;27925;41.874;12.526;2022-07-29T12:09:53;34.20;51.80
40538;DHT22;27925;41.874;12.526;2022-07-29T12:12:20;34.30;51.90
40538;DHT22;27925;41.874;12.526;2022-07-29T12:14:46;34.30;53.10
40538;DHT22;27925;41.874;12.526;2022-07-29T12:17:32;34.30;53.10
40538;DHT22;27925;41.874;12.526;2022-07-29T12:20:03;34.30;54.00
40538;DHT22;27925;41.874;12.526;2022-07-29T12:22:32;34.30;52.20
40538;DHT22;27925;41.874;12.526;2022-07-29T12:25:04;34.20;52.80
40538;DHT22;27925;41.874;12.526;2022-07-29T12:27:30;34.20;52.90
40538;DHT22;27925;41.874;12.526;2022-07-29T12:30:00;34.20;52.20
40538;DHT22;27925;41.874;12.526;2022-07-29T12:37:38;34.40;52.20
40538;DHT22;27925;41.874;12.526;2022-07-29T12:40:07;34.40;52.10
40538;DHT22;27925;41.874;12.526;2022-07-29T12:42:34;34.40;52.80
40538;DHT22;27925;41.874;12.526;2022-07-29T12:45:01;34.40;53.40
40538;DHT22;27925;41.874;12.526;2022-07-29T12:47:28;34.40;52.90
40538;DHT22;27925;41.874;12.526;2022-07-29T12:50:11;34.40;53.20
40538;DHT22;27925;41.874;12.526;2022-07-29T12:52:40;34.50;53.40
40538;DHT22;27925;41.874;12.526;2022-07-29T12:55:07;34.50;52.80
40538;DHT22;27925;41.874;12.526;2022-07-29T12:57:46;34.50;51.30
40538;DHT22;27925;41.874;12.526;2022-07-29T13:00:16;34.50;53.50
40538;DHT22;27925;41.874;12.526;2022-07-29T13:02:55;34.40;53.20
40538;DHT22;27925;41.874;12.526;2022-07-29T13:05:23;34.50;53.30
40538;DHT22;27925;41.874;12.526;2022-07-29T13:07:50;34.50;51.30
40538;DHT22;27925;41.874;12.526;2022-07-29T13:10:20;34.50;51.30
40538;DHT22;27925;41.874;12.526;2022-07-29T13:13:05;34.60;51.20
40538;DHT22;27925;41.874;12.526;2022-07-29T13:15:32;34.60;50.50
40538;DHT22;27925;41.874;12.526;2022-07-29T13:17:59;34.80;51.20
40538;DHT22;27925;41.874;12.526;2022-07-29T13:20:28;34.80;50.80
40538;DHT22;27925;41.874;12.526;2022-07-29T13:22:57;34.80;50.30
40538;DHT22;27925;41.874;12.526;2022-07-29T13:25:29;34.80;51.00
40538;DHT22;27925;41.874;12.526;2022-07-29T13:27:56;34.80;51.00
40538;DHT22;27925;41.874;12.526;2022-07-29T13:30:22;34.90;50.50
40538;DHT22;27925;41.874;12.526;2022-07-29T13:32:51;34.90;50.90
40538;DHT22;27925;41.874;12.526;2022-07-29T13:35:21;34.90;50.10
40538;DHT22;27925;41.874;12.526;2022-07-29T13:37:51;34.90;49.90
40538;DHT22;27925;41.874;12.526;2022-07-29T13:40:18;34.90;50.40
40538;DHT22;27925;41.874;12.526;2022-07-29T13:42:47;35.00;50.40
40538;DHT22;27925;41.874;12.526;2022-07-29T13:45:13;35.00;49.70
40538;DHT22;27925;41.874;12.526;2022-07-29T13:47:41;34.90;50.00
40538;DHT22;27925;41.874;12.526;2022-07-29T13:50:08;35.00;50.20
40538;DHT22;27925;41.874;12.526;2022-07-29T13:52:35;34.90;50.10
40538;DHT22;27925;41.874;12.526;2022-07-29T13:55:03;34.90;51.30
40538;DHT22;27925;41.874;12.526;2022-07-29T13:57:29;34.90;49.90
40538;DHT22;27925;41.874;12.526;2022-07-29T13:59:55;34.90;49.60
40538;DHT22;27925;41.874;12.526;2022-07-29T14:02:22;35.00;49.50
40538;DHT22;27925;41.874;12.526;2022-07-29T14:04:48;35.00;49.90
40538;DHT22;27925;41.874;12.526;2022-07-29T14:07:14;35.00;49.40
40538;DHT22;27925;41.874;12.526;2022-07-29T14:09:42;35.00;49.40
40538;DHT22;27925;41.874;12.526;2022-07-29T14:12:08;35.00;49.30
40538;DHT22;27925;41.874;12.526;2022-07-29T14:14:37;35.00;50.20
40538;DHT22;27925;41.874;12.526;2022-07-29T14:17:11;35.00;49.40
40538;DHT22;27925;41.874;12.526;2022-07-29T14:19:38;34.90;49.20
40538;DHT22;27925;41.874;12.526;2022-07-29T14:22:05;34.90;49.10
40538;DHT22;27925;41.874;12.526;2022-07-29T14:24:36;34.90;48.80
40538;DHT22;27925;41.874;12.526;2022-07-29T14:27:04;34.90;48.80
40538;DHT22;27925;41.874;12.526;2022-07-29T14:29:30;34.90;48.80
40538;DHT22;27925;41.874;12.526;2022-07-29T14:31:57;35.00;48.80
40538;DHT22;27925;41.874;12.526;2022-07-29T14:34:25;34.90;48.80
40538;DHT22;27925;41.874;12.526;2022-07-29T14:37:00;34.90;49.00
40538;DHT22;27925;41.874;12.526;2022-07-29T14:39:26;34.90;48.70
40538;DHT22;27925;41.874;12.526;2022-07-29T14:41:52;34.90;48.80
40538;DHT22;27925;41.874;12.526;2022-07-29T14:44:19;34.80;48.90
40538;DHT22;27925;41.874;12.526;2022-07-29T14:46:46;34.80;48.90
40538;DHT22;27925;41.874;12.526;2022-07-29T14:49:12;34.70;49.00
40538;DHT22;27925;41.874;12.526;2022-07-29T14:51:38;34.70;49.10
40538;DHT22;27925;41.874;12.526;2022-07-29T14:54:05;34.60;49.10
40538;DHT22;27925;41.874;12.526;2022-07-29T14:56:36;34.70;49.10
40538;DHT22;27925;41.874;12.526;2022-07-29T14:59:01;34.70;49.20
40538;DHT22;27925;41.874;12.526;2022-07-29T15:01:27;34.70;49.10
40538;DHT22;27925;41.874;12.526;2022-07-29T15:03:56;34.60;49.10
40538;DHT22;27925;41.874;12.526;2022-07-29T15:06:27;34.50;49.20
40538;DHT22;27925;41.874;12.526;2022-07-29T15:09:01;34.50;49.60
40538;DHT22;27925;41.874;12.526;2022-07-29T15:11:27;34.50;49.50
40538;DHT22;27925;41.874;12.526;2022-07-29T15:13:53;34.50;49.60
40538;DHT22;27925;41.874;12.526;2022-07-29T15:16:20;34.50;49.70
40538;DHT22;27925;41.874;12.526;2022-07-29T15:18:46;34.50;50.20
40538;DHT22;27925;41.874;12.526;2022-07-29T15:21:11;34.50;50.20
40538;DHT22;27925;41.874;12.526;2022-07-29T15:23:37;34.50;51.10
40538;DHT22;27925;41.874;12.526;2022-07-29T15:26:04;34.40;50.60
40538;DHT22;27925;41.874;12.526;2022-07-29T15:28:30;34.40;50.80
40538;DHT22;27925;41.874;12.526;2022-07-29T15:31:19;34.40;50.90
40538;DHT22;27925;41.874;12.526;2022-07-29T15:33:44;34.40;50.70
40538;DHT22;27925;41.874;12.526;2022-07-29T15:36:13;34.30;50.80
40538;DHT22;27925;41.874;12.526;2022-07-29T15:38:53;34.20;50.60
40538;DHT22;27925;41.874;12.526;2022-07-29T15:41:20;34.20;51.20
40538;DHT22;27925;41.874;12.526;2022-07-29T15:43:48;34.10;51.30
40538;DHT22;27925;41.874;12.526;2022-07-29T15:46:17;34.10;51.60
40538;DHT22;27925;41.874;12.526;2022-07-29T15:49:05;34.10;51.20
40538;DHT22;27925;41.874;12.526;2022-07-29T15:51:32;34.10;52.00
40538;DHT22;27925;41.874;12.526;2022-07-29T15:54:02;34.00;52.10
40538;DHT22;27925;41.874;12.526;2022-07-29T15:56:29;34.00;51.70
40538;DHT22;27925;41.874;12.526;2022-07-29T15:58:55;34.10;52.20
40538;DHT22;27925;41.874;12.526;2022-07-29T16:01:20;34.10;52.00
40538;DHT22;27925;41.874;12.526;2022-07-29T16:03:46;34.00;52.00
40538;DHT22;27925;41.874;12.526;2022-07-29T16:06:13;34.00;51.90
40538;DHT22;27925;41.874;12.526;2022-07-29T16:08:39;34.00;51.90
40538;DHT22;27925;41.874;12.526;2022-07-29T16:11:05;33.90;52.40
40538;DHT22;27925;41.874;12.526;2022-07-29T16:13:33;33.90;52.10
40538;DHT22;27925;41.874;12.526;2022-07-29T16:15:59;33.90;51.40
40538;DHT22;27925;41.874;12.526;2022-07-29T16:18:25;33.80;52.00
40538;DHT22;27925;41.874;12.526;2022-07-29T16:20:52;33.70;51.50
40538;DHT22;27925;41.874;12.526;2022-07-29T16:23:19;33.70;51.30